Viking Star — LAIW6 — position and weather

sailwx.info

Track history (hours):
 
Tides and Currents Weather Stations Pressure Air Temp Water Temp Dewpoint Dewpoint Depression Visibility Wind Speed Wind Dir Waves Ship Positions

Viking Star

Last reported at 2019-Oct-17 13:38 UTC. Time now 2019-Oct-19 00:09 UTC.
Position N 38°10' E 016°53'.

Length 228 m; draft 6.7 m.

Type: Passenger vessel. MMSI: 257903000.

Date/timePositionNaut miles runAvg speedWind from/ knotsBaromVisibWave heightAir tempDewpointWater temp
2019-Oct-17 13:38N 38°10' E 016°53'512.9
2019-Oct-17 13:16N 38°08' E 016°47'4612.9
2019-Oct-17 09:43N 37°53' E 015°53'312.8
2019-Oct-17 09:30N 37°53' E 015°49'612.7
2019-Oct-17 09:00N 37°53' E 015°41'713.3
2019-Oct-17 08:29N 37°59' E 015°35'613.4
2019-Oct-17 08:00N 38°05' E 015°35'714.2
2019-Oct-17 07:30N 38°12' E 015°36'713.9
2019-Oct-17 07:00N 38°18' E 015°40'816.3
2019-Oct-17 06:30N 38°24' E 015°34'816.2
2019-Oct-17 06:00N 38°31' E 015°27'816.0
2019-Oct-17 05:30N 38°36' E 015°20'714.9
2019-Oct-17 05:00N 38°42' E 015°14'713.9
2019-Oct-17 04:30N 38°48' E 015°09'4 7.2
2019-Oct-17 03:58N 38°52' E 015°11'5 8.7
2019-Oct-17 03:26N 38°56' E 015°08'7015.4
2019-Oct-16 22:55N 39°59' E 014°29'715.6
2019-Oct-16 22:28N 40°05' E 014°25'715.5
2019-Oct-16 22:00N 40°11' E 014°21'815.2
2019-Oct-16 21:30N 40°18' E 014°17'815.2
2019-Oct-16 21:00N 40°25' E 014°12'815.2
2019-Oct-16 20:30N 40°32' E 014°08'815.5
2019-Oct-16 20:00N 40°39' E 014°12'815.7
2019-Oct-16 19:30N 40°47' E 014°16'4 7.2
2019-Oct-16 19:00N 40°50' E 014°16'0 0.4
2019-Oct-16 18:25N 40°51' E 014°16'0 0.0
2019-Oct-16 17:58N 40°51' E 014°16'0 0.0
2019-Oct-16 17:28N 40°51' E 014°16'0 0.0
2019-Oct-16 16:58N 40°51' E 014°16'0 0.0
2019-Oct-16 16:28N 40°51' E 014°16'0 0.0
2019-Oct-16 15:58N 40°51' E 014°16'0 0.0
2019-Oct-16 15:28N 40°51' E 014°16'0 0.0
2019-Oct-16 14:58N 40°51' E 014°16'0 0.0
2019-Oct-16 14:28N 40°51' E 014°16'0 0.0
2019-Oct-16 13:58N 40°51' E 014°16'0 0.0
2019-Oct-16 13:28N 40°51' E 014°16'0 0.0
2019-Oct-16 12:58N 40°51' E 014°16'0 0.0
2019-Oct-16 12:28N 40°51' E 014°16'0 0.0
2019-Oct-16 11:58N 40°51' E 014°16'0 0.0
2019-Oct-16 11:19N 40°51' E 014°16'0 0.0
2019-Oct-16 10:49N 40°51' E 014°16'0 0.0
2019-Oct-16 10:22N 40°51' E 014°16'0 0.0
2019-Oct-16 09:52N 40°51' E 014°16'0 0.0
2019-Oct-16 09:30N 40°51' E 014°16'0 0.6
2019-Oct-16 09:00N 40°50' E 014°16'2 3.4
2019-Oct-16 08:30N 40°49' E 014°17'611.2
2019-Oct-16 08:00N 40°44' E 014°14'714.3
2019-Oct-16 07:31N 40°40' E 014°06'713.7
2019-Oct-16 07:01N 40°38' E 013°58'815.3
2019-Oct-16 06:31N 40°38' E 013°48'815.7
2019-Oct-16 06:01N 40°40' E 013°37'815.8
2019-Oct-16 05:30N 40°42' E 013°27'163 5.5
2019-Oct-14 23:50N 42°23' E 010°37'515.7
2019-Oct-14 23:30N 42°26' E 010°31'915.5
2019-Oct-14 22:57N 42°32' E 010°22'715.4
2019-Oct-14 22:29N 42°36' E 010°14'1513.8
2019-Oct-14 21:22N 42°49' E 010°03'915.8
2019-Oct-14 20:50N 42°58' E 010°05'1215.5
2019-Oct-14 20:03N 43°10' E 010°08'215.0
2019-Oct-14 19:55N 43°12' E 010°08'615.0
2019-Oct-14 19:30N 43°18' E 010°10'815.3
2019-Oct-14 19:00N 43°25' E 010°12'713.2
2019-Oct-14 18:30N 43°31' E 010°14'3 6.3
2019-Oct-14 18:00N 43°33' E 010°18'0 0.1
2019-Oct-14 17:25N 43°33' E 010°18'0 0.0
2019-Oct-14 16:55N 43°33' E 010°18'0 0.0
2019-Oct-14 16:25N 43°33' E 010°18'0 0.0
2019-Oct-14 15:55N 43°33' E 010°18'0 0.0
2019-Oct-14 15:25N 43°33' E 010°18'0 0.0
2019-Oct-14 14:55N 43°33' E 010°18'0 0.0
2019-Oct-14 14:25N 43°33' E 010°18'0 0.0
2019-Oct-14 13:55N 43°33' E 010°18'0 0.0
2019-Oct-14 13:25N 43°33' E 010°18'0 0.0
2019-Oct-14 12:55N 43°33' E 010°18'0 0.0
2019-Oct-14 12:25N 43°33' E 010°18'0 0.0
2019-Oct-14 11:55N 43°33' E 010°18'0 0.0
2019-Oct-14 11:25N 43°33' E 010°18'0 0.0
2019-Oct-14 10:55N 43°33' E 010°18'0 0.0
2019-Oct-14 10:25N 43°33' E 010°18'0 0.0
2019-Oct-14 09:55N 43°33' E 010°18'0 0.0
2019-Oct-14 09:25N 43°33' E 010°18'0 0.0
2019-Oct-14 08:55N 43°33' E 010°18'0 0.0
2019-Oct-14 08:25N 43°33' E 010°18'0 0.0
2019-Oct-14 07:55N 43°33' E 010°18'0 0.0
2019-Oct-14 07:25N 43°33' E 010°18'0 0.0
2019-Oct-14 06:55N 43°33' E 010°18'0 0.0
2019-Oct-14 06:25N 43°33' E 010°18'0 0.0
2019-Oct-14 06:00N 43°33' E 010°18'0 0.6
2019-Oct-14 05:30N 43°33' E 010°18'3 5.7
2019-Oct-14 05:00N 43°31' E 010°15'4 7.5
2019-Oct-14 04:30N 43°29' E 010°10'510.8
2019-Oct-14 04:00N 43°30' E 010°03'510.6
2019-Oct-14 03:30N 43°31' E 009°56'611.7
2019-Oct-14 03:00N 43°32' E 009°48'611.9
2019-Oct-14 02:30N 43°32' E 009°39'611.9
2019-Oct-14 02:00N 43°33' E 009°31'611.9
2019-Oct-14 01:30N 43°33' E 009°23'611.8
2019-Oct-14 01:00N 43°34' E 009°15'611.8
2019-Oct-14 00:30N 43°34' E 009°07'611.6
2019-Oct-14 00:00N 43°35' E 008°59'611.7
2019-Oct-13 23:30N 43°35' E 008°51'611.5
2019-Oct-13 23:00N 43°36' E 008°43'611.5
2019-Oct-13 22:30N 43°36' E 008°35'611.5
2019-Oct-13 22:00N 43°37' E 008°27'611.2
2019-Oct-13 21:30N 43°37' E 008°19'511.0
2019-Oct-13 21:00N 43°38' E 008°12'510.7
2019-Oct-13 20:30N 43°38' E 008°04'510.6
2019-Oct-13 20:00N 43°39' E 007°57'510.5
2019-Oct-13 19:30N 43°40' E 007°50'510.3
2019-Oct-13 19:00N 43°41' E 007°43'510.5
2019-Oct-13 18:30N 43°42' E 007°36'510.9
2019-Oct-13 18:00N 43°44' E 007°29'2 4.1
2019-Oct-13 17:30N 43°44' E 007°26'0 0.0
2019-Oct-13 17:00N 43°44' E 007°26'0 0.0
2019-Oct-13 16:30N 43°44' E 007°26'0 0.0
2019-Oct-13 16:00N 43°44' E 007°26'0 0.0
2019-Oct-13 15:30N 43°44' E 007°26'0 0.0
2019-Oct-13 15:00N 43°44' E 007°26'0 0.0
2019-Oct-13 14:30N 43°44' E 007°26'0 0.0
2019-Oct-13 14:00N 43°44' E 007°26'0 0.0
2019-Oct-13 13:27N 43°44' E 007°26'0 0.0
2019-Oct-13 13:00N 43°44' E 007°26'0 0.0
2019-Oct-13 12:30N 43°44' E 007°26'0 0.0
2019-Oct-13 12:00N 43°44' E 007°26'0 0.0
2019-Oct-13 11:30N 43°44' E 007°26'0 0.0
2019-Oct-13 11:00N 43°44' E 007°26'0 0.0
2019-Oct-13 10:30N 43°44' E 007°26'0 0.0
2019-Oct-13 10:00N 43°44' E 007°26'0 0.0
2019-Oct-13 09:27N 43°44' E 007°26'0 0.0
2019-Oct-13 09:00N 43°44' E 007°26'0 0.0
2019-Oct-13 08:30N 43°44' E 007°26'0 0.0
2019-Oct-13 08:00N 43°44' E 007°26'0 0.0
2019-Oct-13 07:30N 43°44' E 007°26'0 0.0
2019-Oct-13 07:00N 43°44' E 007°26'0 0.0
2019-Oct-13 06:30N 43°44' E 007°26'0 0.0
2019-Oct-13 06:00N 43°44' E 007°26'0 0.0
2019-Oct-13 05:30N 43°44' E 007°26'0 0.6
2019-Oct-13 05:00N 43°44' E 007°26'3 6.3
2019-Oct-13 04:30N 43°41' E 007°27'714.6
2019-Oct-13 04:00N 43°35' E 007°23'612.6
2019-Oct-13 03:30N 43°30' E 007°17'611.6
2019-Oct-13 03:00N 43°26' E 007°11'611.4
2019-Oct-13 02:30N 43°22' E 007°06'611.7
2019-Oct-13 02:00N 43°17' E 007°00'612.0
2019-Oct-13 01:30N 43°13' E 006°55'611.6
2019-Oct-13 01:00N 43°09' E 006°49'611.3
2019-Oct-13 00:29N 43°04' E 006°44'511.1
2019-Oct-13 00:00N 43°01' E 006°39'611.1
2019-Oct-12 23:30N 42°57' E 006°33'170 6.1
2019-Oct-11 19:40N 41°41' E 003°07'316.4
2019-Oct-11 19:28N 41°40' E 003°03'816.2
2019-Oct-11 19:00N 41°36' E 002°54'816.2
2019-Oct-11 18:30N 41°32' E 002°45'816.0
2019-Oct-11 18:00N 41°28' E 002°36'816.8
2019-Oct-11 17:30N 41°23' E 002°26'816.8
2019-Oct-11 17:00N 41°19' E 002°16'5 9.5
2019-Oct-11 16:31N 41°22' E 002°11'0 0.6
2019-Oct-11 15:56N 41°22' E 002°11'0 0.0
2019-Oct-11 15:26N 41°22' E 002°11'0 0.0
2019-Oct-11 14:56N 41°22' E 002°11'0 0.0
2019-Oct-11 14:26N 41°22' E 002°11'0 0.0
2019-Oct-11 13:56N 41°22' E 002°11'0 0.0
2019-Oct-11 13:26N 41°22' E 002°11'0 0.0
2019-Oct-11 12:56N 41°22' E 002°11'0 0.0
2019-Oct-11 12:26N 41°22' E 002°11'0 0.0
2019-Oct-11 11:56N 41°22' E 002°11'0 0.0
2019-Oct-11 11:26N 41°22' E 002°11'0 0.0
2019-Oct-11 10:56N 41°22' E 002°11'0 0.0
2019-Oct-11 10:26N 41°22' E 002°11'0 0.0
2019-Oct-11 09:56N 41°22' E 002°11'0 0.0
2019-Oct-11 09:26N 41°22' E 002°11'0 0.0
2019-Oct-11 08:56N 41°22' E 002°11'0 0.0
2019-Oct-11 08:26N 41°22' E 002°11'0 0.0
2019-Oct-11 07:56N 41°22' E 002°11'0 0.0
2019-Oct-11 07:26N 41°22' E 002°11'0 0.0
2019-Oct-11 06:56N 41°22' E 002°11'0 0.0
2019-Oct-11 06:26N 41°22' E 002°11'0 0.0
2019-Oct-11 05:56N 41°22' E 002°11'0 0.0
2019-Oct-11 05:26N 41°22' E 002°11'0 0.0
2019-Oct-11 04:56N 41°22' E 002°11'0 0.0
2019-Oct-11 04:26N 41°22' E 002°11'0 0.0
2019-Oct-11 03:56N 41°22' E 002°11'0 0.0
2019-Oct-11 03:26N 41°22' E 002°11'0 0.0
2019-Oct-11 02:56N 41°22' E 002°11'0 0.0
2019-Oct-11 02:26N 41°22' E 002°11'0 0.0
2019-Oct-11 01:56N 41°22' E 002°11'0 0.0
2019-Oct-11 01:26N 41°22' E 002°11'0 0.0
2019-Oct-11 00:56N 41°22' E 002°11'0 0.0
2019-Oct-11 00:26N 41°22' E 002°11'0 0.0
2019-Oct-10 23:56N 41°22' E 002°11'0 0.0
2019-Oct-10 23:26N 41°22' E 002°11'0 0.0
2019-Oct-10 22:56N 41°22' E 002°11'0 0.0
2019-Oct-10 22:26N 41°22' E 002°11'0 0.0
2019-Oct-10 21:56N 41°22' E 002°11'0 0.0
2019-Oct-10 21:26N 41°22' E 002°11'0 0.0
2019-Oct-10 20:56N 41°22' E 002°11'0 0.0
2019-Oct-10 20:26N 41°22' E 002°11'0 0.0
2019-Oct-10 19:56N 41°22' E 002°11'0 0.0
2019-Oct-10 19:26N 41°22' E 002°11'0 0.0
2019-Oct-10 18:56N 41°22' E 002°11'0 0.0
2019-Oct-10 18:26N 41°22' E 002°11'0 0.0
2019-Oct-10 17:56N 41°22' E 002°11'0 0.0
2019-Oct-10 17:26N 41°22' E 002°11'0 0.0
2019-Oct-10 16:56N 41°22' E 002°11'0 0.0
2019-Oct-10 16:26N 41°22' E 002°11'0 0.0
2019-Oct-10 15:56N 41°22' E 002°11'0 0.0
2019-Oct-10 15:26N 41°22' E 002°11'0 0.0
2019-Oct-10 14:56N 41°22' E 002°11'0 0.0
2019-Oct-10 14:26N 41°22' E 002°11'0 0.0
2019-Oct-10 13:56N 41°22' E 002°11'0 0.0
2019-Oct-10 13:26N 41°22' E 002°11'0 0.0
2019-Oct-10 12:56N 41°22' E 002°11'0 0.0
2019-Oct-10 12:26N 41°22' E 002°11'0 0.0
2019-Oct-10 11:56N 41°22' E 002°11'0 0.0
2019-Oct-10 11:26N 41°22' E 002°11'0 0.0
2019-Oct-10 10:56N 41°22' E 002°11'0 0.0
2019-Oct-10 10:26N 41°22' E 002°11'0 0.0
2019-Oct-10 09:56N 41°22' E 002°11'0 0.0
2019-Oct-10 09:26N 41°22' E 002°11'0 0.0
2019-Oct-10 08:56N 41°22' E 002°11'0 0.0
2019-Oct-10 08:26N 41°22' E 002°11'0 0.0
2019-Oct-10 07:56N 41°22' E 002°11'0 0.0
2019-Oct-10 07:26N 41°22' E 002°11'0 0.0
2019-Oct-10 06:56N 41°22' E 002°11'0 0.0
2019-Oct-10 06:26N 41°22' E 002°11'0 0.0
2019-Oct-10 05:56N 41°22' E 002°11'0 0.0
2019-Oct-10 05:26N 41°22' E 002°11'0 0.0
2019-Oct-10 04:56N 41°22' E 002°11'0 0.0
2019-Oct-10 04:26N 41°22' E 002°11'0 0.0
2019-Oct-10 03:56N 41°22' E 002°11'0 0.0
2019-Oct-10 03:26N 41°22' E 002°11'0 0.0
2019-Oct-10 02:56N 41°22' E 002°11'0 0.0
2019-Oct-10 02:26N 41°22' E 002°11'0 0.0
2019-Oct-10 01:56N 41°22' E 002°11'0 0.0
2019-Oct-10 01:26N 41°22' E 002°11'0 0.0
2019-Oct-10 00:56N 41°22' E 002°11'0 0.0
2019-Oct-10 00:26N 41°22' E 002°11'0 0.0
2019-Oct-09 23:56N 41°22' E 002°11'0 0.0
2019-Oct-09 23:26N 41°22' E 002°11'0 0.0
2019-Oct-09 22:56N 41°22' E 002°11'0 0.0
2019-Oct-09 22:26N 41°22' E 002°11'0 0.0
2019-Oct-09 21:56N 41°22' E 002°11'0 0.0
2019-Oct-09 21:26N 41°22' E 002°11'0 0.0
2019-Oct-09 20:56N 41°22' E 002°11'0 0.0
2019-Oct-09 20:26N 41°22' E 002°11'0 0.0
2019-Oct-09 19:59N 41°22' E 002°11'0 0.0
2019-Oct-09 19:29N 41°22' E 002°11'0 0.0
2019-Oct-09 18:59N 41°22' E 002°11'0 0.0
2019-Oct-09 18:29N 41°22' E 002°11'0 0.0
2019-Oct-09 17:59N 41°22' E 002°11'0 0.0
2019-Oct-09 17:29N 41°22' E 002°11'0 0.0
2019-Oct-09 16:59N 41°22' E 002°11'0 0.0
2019-Oct-09 16:29N 41°22' E 002°11'0 0.0
2019-Oct-09 15:56N 41°22' E 002°11'0 0.0
2019-Oct-09 15:26N 41°22' E 002°11'0 0.0
2019-Oct-09 14:59N 41°22' E 002°11'0 0.0
2019-Oct-09 14:29N 41°22' E 002°11'0 0.0
2019-Oct-09 13:59N 41°22' E 002°11'0 0.0
2019-Oct-09 13:29N 41°22' E 002°11'0 0.0
2019-Oct-09 12:59N 41°22' E 002°11'0 0.0
2019-Oct-09 12:29N 41°22' E 002°11'0 0.0
2019-Oct-09 11:59N 41°22' E 002°11'0 0.0
2019-Oct-09 11:29N 41°22' E 002°11'0 0.0
2019-Oct-09 10:59N 41°22' E 002°11'0 0.0
2019-Oct-09 10:29N 41°22' E 002°11'0 0.0
2019-Oct-09 09:59N 41°22' E 002°11'0 0.0
2019-Oct-09 09:29N 41°22' E 002°11'0 0.0
2019-Oct-09 08:59N 41°22' E 002°11'0 0.0
2019-Oct-09 08:29N 41°22' E 002°11'0 0.0
2019-Oct-09 07:59N 41°22' E 002°11'0 0.0
2019-Oct-09 07:29N 41°22' E 002°11'0 0.0
2019-Oct-09 06:59N 41°22' E 002°11'0 0.0
2019-Oct-09 06:29N 41°22' E 002°11'0 0.0
2019-Oct-09 06:00N 41°22' E 002°11'1 1.2
2019-Oct-09 05:30N 41°22' E 002°11'3 6.8
2019-Oct-09 05:00N 41°20' E 002°15'3 6.2
2019-Oct-09 04:30N 41°21' E 002°19'612.4
2019-Oct-09 04:00N 41°24' E 002°26'612.3
2019-Oct-09 03:30N 41°27' E 002°33'713.2
2019-Oct-09 03:01N 41°30' E 002°41'714.1
2019-Oct-09 02:31N 41°33' E 002°49'714.4
2019-Oct-09 02:01N 41°37' E 002°57'814.3
2019-Oct-09 01:29N 41°41' E 003°06'814.3
2019-Oct-09 00:57N 41°46' E 003°14'173 6.8
2019-Oct-07 23:27N 43°04' E 006°43'917.8
2019-Oct-07 22:57N 43°11' E 006°51'817.5
2019-Oct-07 22:30N 43°17' E 006°59'917.4
2019-Oct-07 22:00N 43°23' E 007°07'917.7
2019-Oct-07 21:31N 43°30' E 007°15'816.5
2019-Oct-07 21:00N 43°38' E 007°18'3 6.4
2019-Oct-07 20:30N 43°41' E 007°19'0 0.2
2019-Oct-07 19:52N 43°41' E 007°19'0 0.0
2019-Oct-07 19:28N 43°41' E 007°19'0 0.0
2019-Oct-07 18:55N 43°41' E 007°19'0 0.0
2019-Oct-07 18:28N 43°41' E 007°19'0 0.0
2019-Oct-07 17:58N 43°41' E 007°19'0 0.1
2019-Oct-07 17:28N 43°41' E 007°19'0 0.2
2019-Oct-07 16:58N 43°41' E 007°19'0 0.0
2019-Oct-07 16:28N 43°41' E 007°19'0 0.1
2019-Oct-07 15:58N 43°41' E 007°19'0 0.2
2019-Oct-07 15:28N 43°41' E 007°19'0 0.1
2019-Oct-07 14:58N 43°41' E 007°19'0 0.0
2019-Oct-07 14:28N 43°41' E 007°19'0 0.0
2019-Oct-07 13:55N 43°41' E 007°19'  
Track history (hours):
 
Tides and Currents Weather Stations Pressure Air Temp Water Temp Dewpoint Dewpoint Depression Visibility Wind Speed Wind Dir Waves Ship Positions

Viking Star

Last reported at 2019-Oct-17 13:38 UTC. Time now 2019-Oct-19 00:09 UTC.
Position N 38°10' E 016°53'.

Length 228 m; draft 6.7 m.

Type: Passenger vessel. MMSI: 257903000.

Date/timePositionNaut miles runAvg speedWind from/ knotsBaromVisibWave heightAir tempDewpointWater temp
2019-Oct-17 13:38N 38°10' E 016°53'512.9
2019-Oct-17 13:16N 38°08' E 016°47'4612.9
2019-Oct-17 09:43N 37°53' E 015°53'312.8
2019-Oct-17 09:30N 37°53' E 015°49'612.7
2019-Oct-17 09:00N 37°53' E 015°41'713.3
2019-Oct-17 08:29N 37°59' E 015°35'613.4
2019-Oct-17 08:00N 38°05' E 015°35'714.2
2019-Oct-17 07:30N 38°12' E 015°36'713.9
2019-Oct-17 07:00N 38°18' E 015°40'816.3
2019-Oct-17 06:30N 38°24' E 015°34'816.2
2019-Oct-17 06:00N 38°31' E 015°27'816.0
2019-Oct-17 05:30N 38°36' E 015°20'714.9
2019-Oct-17 05:00N 38°42' E 015°14'713.9
2019-Oct-17 04:30N 38°48' E 015°09'4 7.2
2019-Oct-17 03:58N 38°52' E 015°11'5 8.7
2019-Oct-17 03:26N 38°56' E 015°08'7015.4
2019-Oct-16 22:55N 39°59' E 014°29'715.6
2019-Oct-16 22:28N 40°05' E 014°25'715.5
2019-Oct-16 22:00N 40°11' E 014°21'815.2
2019-Oct-16 21:30N 40°18' E 014°17'815.2
2019-Oct-16 21:00N 40°25' E 014°12'815.2
2019-Oct-16 20:30N 40°32' E 014°08'815.5
2019-Oct-16 20:00N 40°39' E 014°12'815.7
2019-Oct-16 19:30N 40°47' E 014°16'4 7.2
2019-Oct-16 19:00N 40°50' E 014°16'0 0.4
2019-Oct-16 18:25N 40°51' E 014°16'0 0.0
2019-Oct-16 17:58N 40°51' E 014°16'0 0.0
2019-Oct-16 17:28N 40°51' E 014°16'0 0.0
2019-Oct-16 16:58N 40°51' E 014°16'0 0.0
2019-Oct-16 16:28N 40°51' E 014°16'0 0.0
2019-Oct-16 15:58N 40°51' E 014°16'0 0.0
2019-Oct-16 15:28N 40°51' E 014°16'0 0.0
2019-Oct-16 14:58N 40°51' E 014°16'0 0.0
2019-Oct-16 14:28N 40°51' E 014°16'0 0.0
2019-Oct-16 13:58N 40°51' E 014°16'0 0.0
2019-Oct-16 13:28N 40°51' E 014°16'0 0.0
2019-Oct-16 12:58N 40°51' E 014°16'0 0.0
2019-Oct-16 12:28N 40°51' E 014°16'0 0.0
2019-Oct-16 11:58N 40°51' E 014°16'0 0.0
2019-Oct-16 11:19N 40°51' E 014°16'0 0.0
2019-Oct-16 10:49N 40°51' E 014°16'0 0.0
2019-Oct-16 10:22N 40°51' E 014°16'0 0.0
2019-Oct-16 09:52N 40°51' E 014°16'0 0.0
2019-Oct-16 09:30N 40°51' E 014°16'0 0.6
2019-Oct-16 09:00N 40°50' E 014°16'2 3.4
2019-Oct-16 08:30N 40°49' E 014°17'611.2
2019-Oct-16 08:00N 40°44' E 014°14'714.3
2019-Oct-16 07:31N 40°40' E 014°06'713.7
2019-Oct-16 07:01N 40°38' E 013°58'815.3
2019-Oct-16 06:31N 40°38' E 013°48'815.7
2019-Oct-16 06:01N 40°40' E 013°37'815.8
2019-Oct-16 05:30N 40°42' E 013°27'163 5.5
2019-Oct-14 23:50N 42°23' E 010°37'515.7
2019-Oct-14 23:30N 42°26' E 010°31'915.5
2019-Oct-14 22:57N 42°32' E 010°22'715.4
2019-Oct-14 22:29N 42°36' E 010°14'1513.8
2019-Oct-14 21:22N 42°49' E 010°03'915.8
2019-Oct-14 20:50N 42°58' E 010°05'1215.5
2019-Oct-14 20:03N 43°10' E 010°08'215.0
2019-Oct-14 19:55N 43°12' E 010°08'615.0
2019-Oct-14 19:30N 43°18' E 010°10'815.3
2019-Oct-14 19:00N 43°25' E 010°12'713.2
2019-Oct-14 18:30N 43°31' E 010°14'3 6.3
2019-Oct-14 18:00N 43°33' E 010°18'0 0.1
2019-Oct-14 17:25N 43°33' E 010°18'0 0.0
2019-Oct-14 16:55N 43°33' E 010°18'0 0.0
2019-Oct-14 16:25N 43°33' E 010°18'0 0.0
2019-Oct-14 15:55N 43°33' E 010°18'0 0.0
2019-Oct-14 15:25N 43°33' E 010°18'0 0.0
2019-Oct-14 14:55N 43°33' E 010°18'0 0.0
2019-Oct-14 14:25N 43°33' E 010°18'0 0.0
2019-Oct-14 13:55N 43°33' E 010°18'0 0.0
2019-Oct-14 13:25N 43°33' E 010°18'0 0.0
2019-Oct-14 12:55N 43°33' E 010°18'0 0.0
2019-Oct-14 12:25N 43°33' E 010°18'0 0.0
2019-Oct-14 11:55N 43°33' E 010°18'0 0.0
2019-Oct-14 11:25N 43°33' E 010°18'0 0.0
2019-Oct-14 10:55N 43°33' E 010°18'0 0.0
2019-Oct-14 10:25N 43°33' E 010°18'0 0.0
2019-Oct-14 09:55N 43°33' E 010°18'0 0.0
2019-Oct-14 09:25N 43°33' E 010°18'0 0.0
2019-Oct-14 08:55N 43°33' E 010°18'0 0.0
2019-Oct-14 08:25N 43°33' E 010°18'0 0.0
2019-Oct-14 07:55N 43°33' E 010°18'0 0.0
2019-Oct-14 07:25N 43°33' E 010°18'0 0.0
2019-Oct-14 06:55N 43°33' E 010°18'0 0.0
2019-Oct-14 06:25N 43°33' E 010°18'0 0.0
2019-Oct-14 06:00N 43°33' E 010°18'0 0.6
2019-Oct-14 05:30N 43°33' E 010°18'3 5.7
2019-Oct-14 05:00N 43°31' E 010°15'4 7.5
2019-Oct-14 04:30N 43°29' E 010°10'510.8
2019-Oct-14 04:00N 43°30' E 010°03'510.6
2019-Oct-14 03:30N 43°31' E 009°56'611.7
2019-Oct-14 03:00N 43°32' E 009°48'611.9
2019-Oct-14 02:30N 43°32' E 009°39'611.9
2019-Oct-14 02:00N 43°33' E 009°31'611.9
2019-Oct-14 01:30N 43°33' E 009°23'611.8
2019-Oct-14 01:00N 43°34' E 009°15'611.8
2019-Oct-14 00:30N 43°34' E 009°07'611.6
2019-Oct-14 00:00N 43°35' E 008°59'611.7
2019-Oct-13 23:30N 43°35' E 008°51'611.5
2019-Oct-13 23:00N 43°36' E 008°43'611.5
2019-Oct-13 22:30N 43°36' E 008°35'611.5
2019-Oct-13 22:00N 43°37' E 008°27'611.2
2019-Oct-13 21:30N 43°37' E 008°19'511.0
2019-Oct-13 21:00N 43°38' E 008°12'510.7
2019-Oct-13 20:30N 43°38' E 008°04'510.6
2019-Oct-13 20:00N 43°39' E 007°57'510.5
2019-Oct-13 19:30N 43°40' E 007°50'510.3
2019-Oct-13 19:00N 43°41' E 007°43'510.5
2019-Oct-13 18:30N 43°42' E 007°36'510.9
2019-Oct-13 18:00N 43°44' E 007°29'2 4.1
2019-Oct-13 17:30N 43°44' E 007°26'0 0.0
2019-Oct-13 17:00N 43°44' E 007°26'0 0.0
2019-Oct-13 16:30N 43°44' E 007°26'0 0.0
2019-Oct-13 16:00N 43°44' E 007°26'0 0.0
2019-Oct-13 15:30N 43°44' E 007°26'0 0.0
2019-Oct-13 15:00N 43°44' E 007°26'0 0.0
2019-Oct-13 14:30N 43°44' E 007°26'0 0.0
2019-Oct-13 14:00N 43°44' E 007°26'0 0.0
2019-Oct-13 13:27N 43°44' E 007°26'0 0.0
2019-Oct-13 13:00N 43°44' E 007°26'0 0.0
2019-Oct-13 12:30N 43°44' E 007°26'0 0.0
2019-Oct-13 12:00N 43°44' E 007°26'0 0.0
2019-Oct-13 11:30N 43°44' E 007°26'0 0.0
2019-Oct-13 11:00N 43°44' E 007°26'0 0.0
2019-Oct-13 10:30N 43°44' E 007°26'0 0.0
2019-Oct-13 10:00N 43°44' E 007°26'0 0.0
2019-Oct-13 09:27N 43°44' E 007°26'0 0.0
2019-Oct-13 09:00N 43°44' E 007°26'0 0.0
2019-Oct-13 08:30N 43°44' E 007°26'0 0.0
2019-Oct-13 08:00N 43°44' E 007°26'0 0.0
2019-Oct-13 07:30N 43°44' E 007°26'0 0.0
2019-Oct-13 07:00N 43°44' E 007°26'0 0.0
2019-Oct-13 06:30N 43°44' E 007°26'0 0.0
2019-Oct-13 06:00N 43°44' E 007°26'0 0.0
2019-Oct-13 05:30N 43°44' E 007°26'0 0.6
2019-Oct-13 05:00N 43°44' E 007°26'3 6.3
2019-Oct-13 04:30N 43°41' E 007°27'714.6
2019-Oct-13 04:00N 43°35' E 007°23'612.6
2019-Oct-13 03:30N 43°30' E 007°17'611.6
2019-Oct-13 03:00N 43°26' E 007°11'611.4
2019-Oct-13 02:30N 43°22' E 007°06'611.7
2019-Oct-13 02:00N 43°17' E 007°00'612.0
2019-Oct-13 01:30N 43°13' E 006°55'611.6
2019-Oct-13 01:00N 43°09' E 006°49'611.3
2019-Oct-13 00:29N 43°04' E 006°44'511.1
2019-Oct-13 00:00N 43°01' E 006°39'611.1
2019-Oct-12 23:30N 42°57' E 006°33'170 6.1
2019-Oct-11 19:40N 41°41' E 003°07'316.4
2019-Oct-11 19:28N 41°40' E 003°03'816.2
2019-Oct-11 19:00N 41°36' E 002°54'816.2
2019-Oct-11 18:30N 41°32' E 002°45'816.0
2019-Oct-11 18:00N 41°28' E 002°36'816.8
2019-Oct-11 17:30N 41°23' E 002°26'816.8
2019-Oct-11 17:00N 41°19' E 002°16'5 9.5
2019-Oct-11 16:31N 41°22' E 002°11'0 0.6
2019-Oct-11 15:56N 41°22' E 002°11'0 0.0
2019-Oct-11 15:26N 41°22' E 002°11'0 0.0
2019-Oct-11 14:56N 41°22' E 002°11'0 0.0
2019-Oct-11 14:26N 41°22' E 002°11'0 0.0
2019-Oct-11 13:56N 41°22' E 002°11'0 0.0
2019-Oct-11 13:26N 41°22' E 002°11'0 0.0
2019-Oct-11 12:56N 41°22' E 002°11'0 0.0
2019-Oct-11 12:26N 41°22' E 002°11'0 0.0
2019-Oct-11 11:56N 41°22' E 002°11'0 0.0
2019-Oct-11 11:26N 41°22' E 002°11'0 0.0
2019-Oct-11 10:56N 41°22' E 002°11'0 0.0
2019-Oct-11 10:26N 41°22' E 002°11'0 0.0
2019-Oct-11 09:56N 41°22' E 002°11'0 0.0
2019-Oct-11 09:26N 41°22' E 002°11'0 0.0
2019-Oct-11 08:56N 41°22' E 002°11'0 0.0
2019-Oct-11 08:26N 41°22' E 002°11'0 0.0
2019-Oct-11 07:56N 41°22' E 002°11'0 0.0
2019-Oct-11 07:26N 41°22' E 002°11'0 0.0
2019-Oct-11 06:56N 41°22' E 002°11'0 0.0
2019-Oct-11 06:26N 41°22' E 002°11'0 0.0
2019-Oct-11 05:56N 41°22' E 002°11'0 0.0
2019-Oct-11 05:26N 41°22' E 002°11'0 0.0
2019-Oct-11 04:56N 41°22' E 002°11'0 0.0
2019-Oct-11 04:26N 41°22' E 002°11'0 0.0
2019-Oct-11 03:56N 41°22' E 002°11'0 0.0
2019-Oct-11 03:26N 41°22' E 002°11'0 0.0
2019-Oct-11 02:56N 41°22' E 002°11'0 0.0
2019-Oct-11 02:26N 41°22' E 002°11'0 0.0
2019-Oct-11 01:56N 41°22' E 002°11'0 0.0
2019-Oct-11 01:26N 41°22' E 002°11'0 0.0
2019-Oct-11 00:56N 41°22' E 002°11'0 0.0
2019-Oct-11 00:26N 41°22' E 002°11'0 0.0
2019-Oct-10 23:56N 41°22' E 002°11'0 0.0
2019-Oct-10 23:26N 41°22' E 002°11'0 0.0
2019-Oct-10 22:56N 41°22' E 002°11'0 0.0
2019-Oct-10 22:26N 41°22' E 002°11'0 0.0
2019-Oct-10 21:56N 41°22' E 002°11'0 0.0
2019-Oct-10 21:26N 41°22' E 002°11'0 0.0
2019-Oct-10 20:56N 41°22' E 002°11'0 0.0
2019-Oct-10 20:26N 41°22' E 002°11'0 0.0
2019-Oct-10 19:56N 41°22' E 002°11'0 0.0
2019-Oct-10 19:26N 41°22' E 002°11'0 0.0
2019-Oct-10 18:56N 41°22' E 002°11'0 0.0
2019-Oct-10 18:26N 41°22' E 002°11'0 0.0
2019-Oct-10 17:56N 41°22' E 002°11'0 0.0
2019-Oct-10 17:26N 41°22' E 002°11'0 0.0
2019-Oct-10 16:56N 41°22' E 002°11'0 0.0
2019-Oct-10 16:26N 41°22' E 002°11'0 0.0
2019-Oct-10 15:56N 41°22' E 002°11'0 0.0
2019-Oct-10 15:26N 41°22' E 002°11'0 0.0
2019-Oct-10 14:56N 41°22' E 002°11'0 0.0
2019-Oct-10 14:26N 41°22' E 002°11'0 0.0
2019-Oct-10 13:56N 41°22' E 002°11'0 0.0
2019-Oct-10 13:26N 41°22' E 002°11'0 0.0
2019-Oct-10 12:56N 41°22' E 002°11'0 0.0
2019-Oct-10 12:26N 41°22' E 002°11'0 0.0
2019-Oct-10 11:56N 41°22' E 002°11'0 0.0
2019-Oct-10 11:26N 41°22' E 002°11'0 0.0
2019-Oct-10 10:56N 41°22' E 002°11'0 0.0
2019-Oct-10 10:26N 41°22' E 002°11'0 0.0
2019-Oct-10 09:56N 41°22' E 002°11'0 0.0
2019-Oct-10 09:26N 41°22' E 002°11'0 0.0
2019-Oct-10 08:56N 41°22' E 002°11'0 0.0
2019-Oct-10 08:26N 41°22' E 002°11'0 0.0
2019-Oct-10 07:56N 41°22' E 002°11'0 0.0
2019-Oct-10 07:26N 41°22' E 002°11'0 0.0
2019-Oct-10 06:56N 41°22' E 002°11'0 0.0
2019-Oct-10 06:26N 41°22' E 002°11'0 0.0
2019-Oct-10 05:56N 41°22' E 002°11'0 0.0
2019-Oct-10 05:26N 41°22' E 002°11'0 0.0
2019-Oct-10 04:56N 41°22' E 002°11'0 0.0
2019-Oct-10 04:26N 41°22' E 002°11'0 0.0
2019-Oct-10 03:56N 41°22' E 002°11'0 0.0
2019-Oct-10 03:26N 41°22' E 002°11'0 0.0
2019-Oct-10 02:56N 41°22' E 002°11'0 0.0
2019-Oct-10 02:26N 41°22' E 002°11'0 0.0
2019-Oct-10 01:56N 41°22' E 002°11'0 0.0
2019-Oct-10 01:26N 41°22' E 002°11'0 0.0
2019-Oct-10 00:56N 41°22' E 002°11'0 0.0
2019-Oct-10 00:26N 41°22' E 002°11'0 0.0
2019-Oct-09 23:56N 41°22' E 002°11'0 0.0
2019-Oct-09 23:26N 41°22' E 002°11'0 0.0
2019-Oct-09 22:56N 41°22' E 002°11'0 0.0
2019-Oct-09 22:26N 41°22' E 002°11'0 0.0
2019-Oct-09 21:56N 41°22' E 002°11'0 0.0
2019-Oct-09 21:26N 41°22' E 002°11'0 0.0
2019-Oct-09 20:56N 41°22' E 002°11'0 0.0
2019-Oct-09 20:26N 41°22' E 002°11'0 0.0
2019-Oct-09 19:59N 41°22' E 002°11'0 0.0
2019-Oct-09 19:29N 41°22' E 002°11'0 0.0
2019-Oct-09 18:59N 41°22' E 002°11'0 0.0
2019-Oct-09 18:29N 41°22' E 002°11'0 0.0
2019-Oct-09 17:59N 41°22' E 002°11'0 0.0
2019-Oct-09 17:29N 41°22' E 002°11'0 0.0
2019-Oct-09 16:59N 41°22' E 002°11'0 0.0
2019-Oct-09 16:29N 41°22' E 002°11'0 0.0
2019-Oct-09 15:56N 41°22' E 002°11'0 0.0
2019-Oct-09 15:26N 41°22' E 002°11'0 0.0
2019-Oct-09 14:59N 41°22' E 002°11'0 0.0
2019-Oct-09 14:29N 41°22' E 002°11'0 0.0
2019-Oct-09 13:59N 41°22' E 002°11'0 0.0
2019-Oct-09 13:29N 41°22' E 002°11'0 0.0
2019-Oct-09 12:59N 41°22' E 002°11'0 0.0
2019-Oct-09 12:29N 41°22' E 002°11'0 0.0
2019-Oct-09 11:59N 41°22' E 002°11'0 0.0
2019-Oct-09 11:29N 41°22' E 002°11'0 0.0
2019-Oct-09 10:59N 41°22' E 002°11'0 0.0
2019-Oct-09 10:29N 41°22' E 002°11'0 0.0
2019-Oct-09 09:59N 41°22' E 002°11'0 0.0
2019-Oct-09 09:29N 41°22' E 002°11'0 0.0
2019-Oct-09 08:59N 41°22' E 002°11'0 0.0
2019-Oct-09 08:29N 41°22' E 002°11'0 0.0
2019-Oct-09 07:59N 41°22' E 002°11'0 0.0
2019-Oct-09 07:29N 41°22' E 002°11'0 0.0
2019-Oct-09 06:59N 41°22' E 002°11'0 0.0
2019-Oct-09 06:29N 41°22' E 002°11'0 0.0
2019-Oct-09 06:00N 41°22' E 002°11'1 1.2
2019-Oct-09 05:30N 41°22' E 002°11'3 6.8
2019-Oct-09 05:00N 41°20' E 002°15'3 6.2
2019-Oct-09 04:30N 41°21' E 002°19'612.4
2019-Oct-09 04:00N 41°24' E 002°26'612.3
2019-Oct-09 03:30N 41°27' E 002°33'713.2
2019-Oct-09 03:01N 41°30' E 002°41'714.1
2019-Oct-09 02:31N 41°33' E 002°49'714.4
2019-Oct-09 02:01N 41°37' E 002°57'814.3
2019-Oct-09 01:29N 41°41' E 003°06'814.3
2019-Oct-09 00:57N 41°46' E 003°14'173 6.8
2019-Oct-07 23:27N 43°04' E 006°43'917.8
2019-Oct-07 22:57N 43°11' E 006°51'817.5
2019-Oct-07 22:30N 43°17' E 006°59'917.4
2019-Oct-07 22:00N 43°23' E 007°07'917.7
2019-Oct-07 21:31N 43°30' E 007°15'816.5
2019-Oct-07 21:00N 43°38' E 007°18'3 6.4
2019-Oct-07 20:30N 43°41' E 007°19'0 0.2
2019-Oct-07 19:52N 43°41' E 007°19'0 0.0
2019-Oct-07 19:28N 43°41' E 007°19'0 0.0
2019-Oct-07 18:55N 43°41' E 007°19'0 0.0
2019-Oct-07 18:28N 43°41' E 007°19'0 0.0
2019-Oct-07 17:58N 43°41' E 007°19'0 0.1
2019-Oct-07 17:28N 43°41' E 007°19'0 0.2
2019-Oct-07 16:58N 43°41' E 007°19'0 0.0
2019-Oct-07 16:28N 43°41' E 007°19'0 0.1
2019-Oct-07 15:58N 43°41' E 007°19'0 0.2
2019-Oct-07 15:28N 43°41' E 007°19'0 0.1
2019-Oct-07 14:58N 43°41' E 007°19'0 0.0
2019-Oct-07 14:28N 43°41' E 007°19'0 0.0
2019-Oct-07 13:55N 43°41' E 007°19'  

Dump ship's entire track history